createdAt,value
2023-04-19T00:05:49.773Z,2.45
2023-04-19T00:12:51.310Z,2.90
2023-04-19T00:19:52.834Z,3.00
2023-04-19T00:26:54.397Z,2.97
2023-04-19T00:33:56.718Z,2.05
2023-04-19T00:41:01.474Z,1.60
2023-04-19T00:48:03.064Z,1.90
2023-04-19T00:55:05.045Z,1.88
2023-04-19T01:02:07.384Z,2.67
2023-04-19T01:09:09.315Z,2.63
2023-04-19T01:16:11.159Z,2.80
2023-04-19T01:23:13.060Z,2.13
2023-04-19T01:30:14.821Z,2.28
2023-04-19T01:37:16.398Z,3.08
2023-04-19T01:44:17.996Z,2.25
2023-04-19T01:51:21.664Z,2.10
2023-04-19T01:58:23.216Z,2.70
2023-04-19T02:05:24.802Z,2.92
2023-04-19T02:12:33.801Z,2.45
2023-04-19T02:19:36.215Z,2.75
2023-04-19T02:26:37.738Z,2.40
2023-04-19T02:33:39.618Z,2.78
2023-04-19T02:40:41.119Z,2.78
2023-04-19T02:47:42.725Z,2.75
2023-04-19T02:54:44.666Z,2.47
2023-04-19T03:01:46.447Z,2.20
2023-04-19T03:08:48.775Z,2.50
2023-04-19T03:15:52.481Z,3.13
2023-04-19T03:22:57.220Z,2.58
2023-04-19T03:30:00.143Z,2.90
2023-04-19T03:37:04.106Z,2.90
2023-04-19T03:44:07.352Z,3.63
2023-04-19T03:51:09.236Z,2.90
2023-04-19T03:58:11.100Z,2.88
2023-04-19T04:05:22.031Z,2.80
2023-04-19T04:12:23.717Z,2.92
2023-04-19T04:19:28.697Z,2.47
2023-04-19T04:26:33.985Z,2.65
2023-04-19T04:33:47.347Z,2.60
2023-04-19T04:40:55.779Z,2.40
2023-04-19T04:47:57.606Z,2.80
2023-04-19T04:54:59.249Z,2.78
2023-04-19T05:02:06.326Z,2.58
2023-04-19T05:09:08.077Z,2.80
2023-04-19T05:16:11.032Z,2.45
2023-04-19T05:23:15.740Z,2.75
2023-04-19T05:30:18.102Z,2.15
2023-04-19T05:37:20.638Z,2.40
2023-04-19T05:44:22.292Z,1.88
2023-04-19T05:51:24.053Z,1.85
2023-04-19T05:58:37.580Z,2.80
2023-04-19T06:05:40.876Z,2.55
2023-04-19T06:12:42.714Z,2.20
2023-04-19T06:19:44.340Z,2.50
2023-04-19T06:26:47.552Z,2.10
2023-04-19T06:33:49.103Z,2.40
2023-04-19T06:40:50.621Z,2.33
2023-04-19T06:47:52.358Z,2.38
2023-04-19T06:54:53.974Z,2.60
2023-04-19T07:01:57.503Z,2.70
2023-04-19T07:08:59.250Z,2.00
2023-04-19T07:16:04.339Z,2.80
2023-04-19T07:23:05.932Z,2.42
2023-04-19T07:30:08.001Z,2.30
2023-04-19T07:37:09.572Z,2.58
2023-04-19T07:44:12.055Z,2.63
2023-04-19T07:51:17.006Z,2.40
2023-04-19T07:58:18.611Z,2.00
2023-04-19T08:05:20.665Z,1.75
2023-04-19T08:12:34.499Z,2.53
2023-04-19T08:19:37.177Z,2.65
2023-04-19T08:26:39.174Z,3.22
2023-04-19T08:33:40.763Z,2.20
2023-04-19T08:40:46.631Z,2.83
2023-04-19T08:47:59.699Z,2.70
2023-04-19T08:55:07.013Z,2.58
2023-04-19T09:02:08.717Z,2.05
2023-04-19T09:16:25.989Z,2.65
2023-04-19T09:23:28.612Z,2.80
2023-04-19T09:30:33.988Z,2.40
2023-04-19T09:38:02.076Z,2.33
2023-04-19T09:52:09.496Z,2.70
2023-04-19T09:59:20.289Z,2.90
2023-04-19T10:13:27.441Z,3.13
2023-04-19T10:20:49.985Z,2.95
2023-04-19T10:27:51.621Z,2.50
2023-04-19T10:34:56.129Z,2.33
2023-04-19T10:41:58.617Z,2.58
2023-04-19T10:49:00.998Z,2.33
2023-04-19T10:56:02.612Z,2.90
2023-04-19T11:03:49.647Z,2.85
2023-04-19T11:10:53.237Z,2.80
2023-04-19T11:18:08.860Z,3.03
2023-04-19T11:25:18.921Z,2.65
2023-04-19T11:32:21.502Z,2.75
2023-04-19T11:39:23.223Z,2.92
2023-04-19T11:46:24.886Z,3.03
2023-04-19T11:53:27.359Z,3.08
2023-04-19T12:00:29.715Z,3.00
2023-04-19T12:07:31.419Z,2.17
2023-04-19T12:14:33.225Z,2.70
2023-04-19T12:21:34.789Z,2.70
2023-04-19T12:28:36.345Z,3.08
2023-04-19T12:35:39.102Z,2.80
2023-04-19T12:42:40.693Z,2.65
2023-04-19T12:49:42.317Z,2.40
2023-04-19T12:56:44.009Z,3.40
2023-04-19T13:03:46.021Z,2.90
2023-04-19T13:10:47.870Z,2.83
2023-04-19T13:17:50.827Z,3.08
2023-04-19T13:24:52.430Z,2.65
2023-04-19T13:31:54.000Z,3.20
2023-04-19T13:38:55.636Z,3.20
2023-04-19T13:45:57.378Z,3.25
2023-04-19T13:52:59.078Z,2.90
2023-04-19T14:00:00.691Z,2.10
2023-04-19T14:07:02.365Z,2.25
2023-04-19T14:14:03.997Z,3.30
2023-04-19T14:21:05.785Z,3.00
2023-04-19T14:28:07.778Z,3.20
2023-04-19T14:35:11.174Z,2.90
2023-04-19T14:42:12.982Z,3.20
2023-04-19T14:49:14.822Z,2.50
2023-04-19T14:56:16.840Z,3.22
2023-04-19T15:03:18.862Z,3.17
2023-04-19T15:10:20.754Z,3.75
2023-04-19T15:17:22.384Z,2.63
2023-04-19T15:24:23.968Z,2.92
2023-04-19T15:31:26.241Z,2.92
2023-04-19T15:38:29.244Z,4.18
2023-04-19T15:45:30.866Z,3.60
2023-04-19T15:52:32.507Z,3.63
2023-04-19T15:59:34.238Z,10.73
2023-04-19T16:06:35.961Z,2.50
2023-04-19T16:13:37.578Z,3.83
2023-04-19T16:20:39.282Z,4.00
2023-04-19T16:27:44.798Z,4.53
2023-04-19T16:34:46.531Z,3.85
2023-04-19T16:41:48.217Z,3.83
2023-04-19T16:48:49.861Z,7.82
2023-04-19T16:55:51.526Z,3.92
2023-04-19T17:02:53.733Z,3.80
2023-04-19T17:09:55.943Z,4.88
2023-04-19T17:16:57.730Z,4.45
2023-04-19T17:23:59.421Z,5.80
2023-04-19T17:31:01.037Z,3.42
2023-04-19T17:38:02.604Z,4.00
2023-04-19T17:45:06.428Z,3.33
2023-04-19T17:52:08.026Z,3.25
2023-04-19T17:59:09.755Z,3.63
2023-04-19T18:06:11.890Z,3.17
2023-04-19T18:13:13.615Z,3.25
2023-04-19T18:20:15.616Z,4.57
2023-04-19T18:27:17.475Z,4.07
2023-04-19T18:34:19.558Z,2.85
2023-04-19T18:41:21.417Z,3.58
2023-04-19T18:48:27.485Z,3.58
2023-04-19T18:55:31.039Z,3.70
2023-04-19T19:02:34.463Z,4.22
2023-04-19T19:09:36.871Z,5.88
2023-04-19T19:16:50.828Z,5.63
2023-04-19T19:23:57.666Z,5.97
2023-04-19T19:30:59.503Z,5.78
2023-04-19T19:38:01.108Z,4.97
2023-04-19T19:45:02.811Z,5.05
2023-04-19T19:52:04.623Z,6.40
2023-04-19T19:59:06.569Z,6.47
2023-04-19T20:13:13.281Z,5.50
2023-04-19T20:20:15.073Z,6.32
2023-04-19T20:27:16.780Z,5.45
2023-04-19T20:34:18.389Z,5.57
2023-04-19T20:41:22.036Z,4.90
2023-04-19T20:48:23.613Z,5.00
2023-04-19T20:55:25.272Z,4.80
2023-04-19T21:02:27.673Z,5.78
2023-04-19T21:09:29.706Z,13.15
2023-04-19T21:16:31.694Z,5.75
2023-04-19T21:23:33.422Z,5.20
2023-04-19T21:37:40.168Z,5.22
2023-04-19T21:44:41.753Z,4.53
2023-04-19T21:51:43.269Z,6.68
2023-04-19T21:58:44.858Z,5.38
2023-04-19T22:05:46.630Z,5.53
2023-04-19T22:12:57.897Z,4.57
2023-04-19T22:20:00.610Z,4.93
2023-04-19T22:27:02.270Z,3.78
2023-04-19T22:34:03.867Z,5.22
2023-04-19T22:41:05.482Z,4.45
2023-04-19T22:48:07.091Z,5.43
2023-04-19T22:55:10.050Z,4.63
2023-04-19T23:02:11.732Z,3.60
2023-04-19T23:09:13.907Z,4.07
2023-04-19T23:16:15.510Z,4.30
2023-04-19T23:23:17.173Z,3.42
2023-04-19T23:30:18.729Z,4.20
2023-04-19T23:37:20.359Z,4.47
2023-04-19T23:44:21.945Z,4.32
2023-04-19T23:51:23.517Z,5.15
2023-04-19T23:58:25.070Z,4.18
